sensor_id;sensor_type;location;lat;lon;timestamp;P1;durP1;ratioP1;P2;durP2;ratioP2
63693;SDS011;49839;51.798;10.954;2024-03-22T00:01:53;9.45;;;5.47;;
63693;SDS011;49839;51.798;10.954;2024-03-22T00:04:20;9.07;;;5.88;;
63693;SDS011;49839;51.798;10.954;2024-03-22T00:06:46;12.30;;;7.15;;
63693;SDS011;49839;51.798;10.954;2024-03-22T00:09:13;10.68;;;6.53;;
63693;SDS011;49839;51.798;10.954;2024-03-22T00:11:39;10.90;;;6.80;;
63693;SDS011;49839;51.798;10.954;2024-03-22T00:14:06;12.75;;;7.38;;
63693;SDS011;49839;51.798;10.954;2024-03-22T00:16:32;12.65;;;7.95;;
63693;SDS011;49839;51.798;10.954;2024-03-22T00:19:00;15.55;;;8.38;;
63693;SDS011;49839;51.798;10.954;2024-03-22T00:21:25;16.90;;;9.88;;
63693;SDS011;49839;51.798;10.954;2024-03-22T00:23:52;16.95;;;10.00;;
63693;SDS011;49839;51.798;10.954;2024-03-22T00:26:17;15.98;;;10.15;;
63693;SDS011;49839;51.798;10.954;2024-03-22T00:28:44;24.38;;;12.32;;
63693;SDS011;49839;51.798;10.954;2024-03-22T00:31:09;20.40;;;12.63;;
63693;SDS011;49839;51.798;10.954;2024-03-22T00:33:36;23.33;;;13.50;;
63693;SDS011;49839;51.798;10.954;2024-03-22T00:36:03;25.35;;;15.15;;
63693;SDS011;49839;51.798;10.954;2024-03-22T00:38:29;27.45;;;15.30;;
63693;SDS011;49839;51.798;10.954;2024-03-22T00:40:55;23.60;;;14.15;;
63693;SDS011;49839;51.798;10.954;2024-03-22T00:43:24;31.97;;;17.50;;
63693;SDS011;49839;51.798;10.954;2024-03-22T00:45:49;25.70;;;15.65;;
63693;SDS011;49839;51.798;10.954;2024-03-22T00:48:16;24.27;;;14.48;;
63693;SDS011;49839;51.798;10.954;2024-03-22T00:50:41;25.13;;;15.80;;
63693;SDS011;49839;51.798;10.954;2024-03-22T00:53:09;21.10;;;13.25;;
63693;SDS011;49839;51.798;10.954;2024-03-22T00:55:35;23.88;;;15.23;;
63693;SDS011;49839;51.798;10.954;2024-03-22T00:58:04;23.43;;;16.20;;
63693;SDS011;49839;51.798;10.954;2024-03-22T01:00:29;27.77;;;19.35;;
63693;SDS011;49839;51.798;10.954;2024-03-22T01:02:56;23.83;;;15.70;;
63693;SDS011;49839;51.798;10.954;2024-03-22T01:05:21;28.08;;;16.08;;
63693;SDS011;49839;51.798;10.954;2024-03-22T01:07:48;27.00;;;18.20;;
63693;SDS011;49839;51.798;10.954;2024-03-22T01:10:15;24.63;;;14.27;;
63693;SDS011;49839;51.798;10.954;2024-03-22T01:12:41;27.33;;;17.10;;
63693;SDS011;49839;51.798;10.954;2024-03-22T01:15:07;29.38;;;16.23;;
63693;SDS011;49839;51.798;10.954;2024-03-22T01:17:34;36.25;;;18.75;;
63693;SDS011;49839;51.798;10.954;2024-03-22T01:19:59;35.78;;;17.45;;
63693;SDS011;49839;51.798;10.954;2024-03-22T01:22:26;32.67;;;18.65;;
63693;SDS011;49839;51.798;10.954;2024-03-22T01:24:51;32.55;;;20.05;;
63693;SDS011;49839;51.798;10.954;2024-03-22T01:27:20;31.98;;;15.15;;
63693;SDS011;49839;51.798;10.954;2024-03-22T01:29:45;33.17;;;17.23;;
63693;SDS011;49839;51.798;10.954;2024-03-22T01:32:12;24.30;;;13.73;;
63693;SDS011;49839;51.798;10.954;2024-03-22T01:34:38;30.25;;;14.98;;
63693;SDS011;49839;51.798;10.954;2024-03-22T01:37:07;29.23;;;18.08;;
63693;SDS011;49839;51.798;10.954;2024-03-22T01:39:32;20.90;;;11.80;;
63693;SDS011;49839;51.798;10.954;2024-03-22T01:41:59;31.27;;;17.00;;
63693;SDS011;49839;51.798;10.954;2024-03-22T01:44:28;26.08;;;15.70;;
63693;SDS011;49839;51.798;10.954;2024-03-22T01:47:00;27.17;;;15.40;;
63693;SDS011;49839;51.798;10.954;2024-03-22T01:49:26;22.75;;;12.48;;
63693;SDS011;49839;51.798;10.954;2024-03-22T01:51:55;25.13;;;15.32;;
63693;SDS011;49839;51.798;10.954;2024-03-22T01:54:21;25.45;;;15.63;;
63693;SDS011;49839;51.798;10.954;2024-03-22T01:56:48;23.10;;;14.25;;
63693;SDS011;49839;51.798;10.954;2024-03-22T01:59:13;25.40;;;14.35;;
63693;SDS011;49839;51.798;10.954;2024-03-22T02:01:41;20.85;;;12.60;;
63693;SDS011;49839;51.798;10.954;2024-03-22T02:04:07;22.58;;;14.65;;
63693;SDS011;49839;51.798;10.954;2024-03-22T02:06:33;20.95;;;13.68;;
63693;SDS011;49839;51.798;10.954;2024-03-22T02:09:00;21.58;;;14.05;;
63693;SDS011;49839;51.798;10.954;2024-03-22T02:11:26;20.40;;;12.55;;
63693;SDS011;49839;51.798;10.954;2024-03-22T02:13:52;20.27;;;13.20;;
63693;SDS011;49839;51.798;10.954;2024-03-22T02:16:19;19.60;;;13.05;;
63693;SDS011;49839;51.798;10.954;2024-03-22T02:18:46;21.35;;;12.30;;
63693;SDS011;49839;51.798;10.954;2024-03-22T02:21:12;18.55;;;11.98;;
63693;SDS011;49839;51.798;10.954;2024-03-22T02:23:42;19.55;;;11.88;;
63693;SDS011;49839;51.798;10.954;2024-03-22T02:26:08;18.17;;;10.77;;
63693;SDS011;49839;51.798;10.954;2024-03-22T02:28:34;23.00;;;12.88;;
63693;SDS011;49839;51.798;10.954;2024-03-22T02:31:02;19.25;;;12.68;;
63693;SDS011;49839;51.798;10.954;2024-03-22T02:33:27;16.40;;;9.73;;
63693;SDS011;49839;51.798;10.954;2024-03-22T02:35:54;18.73;;;11.38;;
63693;SDS011;49839;51.798;10.954;2024-03-22T02:38:19;19.75;;;12.15;;
63693;SDS011;49839;51.798;10.954;2024-03-22T02:40:48;18.00;;;12.32;;
63693;SDS011;49839;51.798;10.954;2024-03-22T02:43:13;18.45;;;12.20;;
63693;SDS011;49839;51.798;10.954;2024-03-22T02:45:40;20.42;;;12.10;;
63693;SDS011;49839;51.798;10.954;2024-03-22T02:48:06;21.92;;;13.75;;
63693;SDS011;49839;51.798;10.954;2024-03-22T02:50:32;18.13;;;10.63;;
63693;SDS011;49839;51.798;10.954;2024-03-22T02:52:58;19.70;;;11.38;;
63693;SDS011;49839;51.798;10.954;2024-03-22T02:55:24;20.50;;;13.00;;
63693;SDS011;49839;51.798;10.954;2024-03-22T02:57:51;19.85;;;12.93;;
63693;SDS011;49839;51.798;10.954;2024-03-22T03:00:18;20.60;;;13.43;;
63693;SDS011;49839;51.798;10.954;2024-03-22T03:02:43;22.52;;;13.57;;
63693;SDS011;49839;51.798;10.954;2024-03-22T03:05:10;17.83;;;11.60;;
63693;SDS011;49839;51.798;10.954;2024-03-22T03:07:35;22.00;;;13.30;;
63693;SDS011;49839;51.798;10.954;2024-03-22T03:10:02;23.20;;;14.95;;
63693;SDS011;49839;51.798;10.954;2024-03-22T03:12:27;21.55;;;12.77;;
63693;SDS011;49839;51.798;10.954;2024-03-22T03:14:55;23.77;;;14.25;;
63693;SDS011;49839;51.798;10.954;2024-03-22T03:17:21;23.02;;;12.70;;
63693;SDS011;49839;51.798;10.954;2024-03-22T03:19:48;21.60;;;13.95;;
63693;SDS011;49839;51.798;10.954;2024-03-22T03:22:14;18.10;;;11.30;;
63693;SDS011;49839;51.798;10.954;2024-03-22T03:24:40;20.63;;;12.15;;
63693;SDS011;49839;51.798;10.954;2024-03-22T03:27:06;19.58;;;13.23;;
63693;SDS011;49839;51.798;10.954;2024-03-22T03:29:32;20.38;;;13.10;;
63693;SDS011;49839;51.798;10.954;2024-03-22T03:31:59;21.30;;;12.45;;
63693;SDS011;49839;51.798;10.954;2024-03-22T03:34:26;18.50;;;11.57;;
63693;SDS011;49839;51.798;10.954;2024-03-22T03:36:51;16.92;;;11.57;;
63693;SDS011;49839;51.798;10.954;2024-03-22T03:39:18;20.63;;;13.20;;
63693;SDS011;49839;51.798;10.954;2024-03-22T03:41:43;21.65;;;11.65;;
63693;SDS011;49839;51.798;10.954;2024-03-22T03:44:10;19.98;;;11.00;;
63693;SDS011;49839;51.798;10.954;2024-03-22T03:46:35;20.50;;;12.82;;
63693;SDS011;49839;51.798;10.954;2024-03-22T03:49:03;19.48;;;11.85;;
63693;SDS011;49839;51.798;10.954;2024-03-22T03:51:28;18.20;;;10.73;;
63693;SDS011;49839;51.798;10.954;2024-03-22T03:53:55;20.27;;;12.73;;
63693;SDS011;49839;51.798;10.954;2024-03-22T03:56:20;17.55;;;11.52;;
63693;SDS011;49839;51.798;10.954;2024-03-22T03:58:47;19.55;;;11.98;;
63693;SDS011;49839;51.798;10.954;2024-03-22T04:01:12;15.15;;;9.43;;
63693;SDS011;49839;51.798;10.954;2024-03-22T04:03:39;18.38;;;12.02;;
63693;SDS011;49839;51.798;10.954;2024-03-22T04:06:06;21.67;;;11.55;;
63693;SDS011;49839;51.798;10.954;2024-03-22T04:08:32;20.52;;;12.85;;
63693;SDS011;49839;51.798;10.954;2024-03-22T04:10:58;23.38;;;11.57;;
63693;SDS011;49839;51.798;10.954;2024-03-22T04:13:25;17.45;;;12.00;;
63693;SDS011;49839;51.798;10.954;2024-03-22T04:15:50;21.38;;;12.43;;
63693;SDS011;49839;51.798;10.954;2024-03-22T04:18:17;20.02;;;13.65;;
63693;SDS011;49839;51.798;10.954;2024-03-22T04:20:43;22.40;;;11.73;;
63693;SDS011;49839;51.798;10.954;2024-03-22T04:23:11;22.27;;;12.43;;
63693;SDS011;49839;51.798;10.954;2024-03-22T04:25:36;24.45;;;12.65;;
63693;SDS011;49839;51.798;10.954;2024-03-22T04:28:03;21.55;;;11.10;;
63693;SDS011;49839;51.798;10.954;2024-03-22T04:30:28;21.35;;;13.15;;
63693;SDS011;49839;51.798;10.954;2024-03-22T04:32:55;23.67;;;14.05;;
63693;SDS011;49839;51.798;10.954;2024-03-22T04:35:23;23.58;;;13.00;;
63693;SDS011;49839;51.798;10.954;2024-03-22T04:37:49;20.42;;;12.73;;
63693;SDS011;49839;51.798;10.954;2024-03-22T04:40:17;22.95;;;14.80;;
63693;SDS011;49839;51.798;10.954;2024-03-22T04:42:44;23.08;;;12.48;;
63693;SDS011;49839;51.798;10.954;2024-03-22T04:45:10;25.75;;;14.80;;
63693;SDS011;49839;51.798;10.954;2024-03-22T04:47:37;21.98;;;12.23;;
63693;SDS011;49839;51.798;10.954;2024-03-22T04:50:03;21.40;;;12.15;;
63693;SDS011;49839;51.798;10.954;2024-03-22T04:52:29;22.27;;;12.13;;
63693;SDS011;49839;51.798;10.954;2024-03-22T04:54:55;15.18;;;8.15;;
63693;SDS011;49839;51.798;10.954;2024-03-22T04:57:22;24.48;;;12.82;;
63693;SDS011;49839;51.798;10.954;2024-03-22T04:59:48;23.08;;;13.82;;
63693;SDS011;49839;51.798;10.954;2024-03-22T05:02:14;30.77;;;16.80;;
63693;SDS011;49839;51.798;10.954;2024-03-22T05:04:40;22.00;;;13.10;;
63693;SDS011;49839;51.798;10.954;2024-03-22T05:07:06;21.75;;;12.23;;
63693;SDS011;49839;51.798;10.954;2024-03-22T05:09:32;29.88;;;14.00;;
63693;SDS011;49839;51.798;10.954;2024-03-22T05:12:00;20.45;;;11.85;;
63693;SDS011;49839;51.798;10.954;2024-03-22T05:14:27;22.45;;;14.02;;
63693;SDS011;49839;51.798;10.954;2024-03-22T05:16:53;19.42;;;11.15;;
63693;SDS011;49839;51.798;10.954;2024-03-22T05:19:19;21.73;;;13.07;;
63693;SDS011;49839;51.798;10.954;2024-03-22T05:21:45;23.55;;;13.00;;
63693;SDS011;49839;51.798;10.954;2024-03-22T05:24:11;21.55;;;11.20;;
63693;SDS011;49839;51.798;10.954;2024-03-22T05:26:38;25.17;;;13.68;;
63693;SDS011;49839;51.798;10.954;2024-03-22T05:29:03;28.83;;;13.98;;
63693;SDS011;49839;51.798;10.954;2024-03-22T05:31:31;26.55;;;12.85;;
63693;SDS011;49839;51.798;10.954;2024-03-22T05:34:10;26.13;;;14.55;;
63693;SDS011;49839;51.798;10.954;2024-03-22T05:36:37;24.98;;;12.60;;
63693;SDS011;49839;51.798;10.954;2024-03-22T05:39:03;21.13;;;11.18;;
63693;SDS011;49839;51.798;10.954;2024-03-22T05:41:29;29.02;;;17.48;;
63693;SDS011;49839;51.798;10.954;2024-03-22T05:43:55;20.40;;;11.43;;
63693;SDS011;49839;51.798;10.954;2024-03-22T05:46:22;24.13;;;12.73;;
63693;SDS011;49839;51.798;10.954;2024-03-22T05:48:49;27.13;;;15.85;;
63693;SDS011;49839;51.798;10.954;2024-03-22T05:51:17;23.75;;;11.52;;
63693;SDS011;49839;51.798;10.954;2024-03-22T05:53:42;22.35;;;12.23;;
63693;SDS011;49839;51.798;10.954;2024-03-22T05:56:09;22.02;;;11.43;;
63693;SDS011;49839;51.798;10.954;2024-03-22T05:58:35;26.40;;;12.48;;
63693;SDS011;49839;51.798;10.954;2024-03-22T06:01:02;24.73;;;13.00;;
63693;SDS011;49839;51.798;10.954;2024-03-22T06:03:28;26.38;;;13.13;;
63693;SDS011;49839;51.798;10.954;2024-03-22T06:05:58;25.70;;;14.30;;
63693;SDS011;49839;51.798;10.954;2024-03-22T06:08:25;25.25;;;13.35;;
63693;SDS011;49839;51.798;10.954;2024-03-22T06:10:52;24.50;;;13.05;;
63693;SDS011;49839;51.798;10.954;2024-03-22T06:13:18;24.90;;;14.98;;
63693;SDS011;49839;51.798;10.954;2024-03-22T06:15:44;24.38;;;11.85;;
63693;SDS011;49839;51.798;10.954;2024-03-22T06:18:13;23.52;;;11.55;;
63693;SDS011;49839;51.798;10.954;2024-03-22T06:20:40;27.77;;;14.27;;
63693;SDS011;49839;51.798;10.954;2024-03-22T06:23:06;24.83;;;13.05;;
63693;SDS011;49839;51.798;10.954;2024-03-22T06:25:33;25.25;;;14.52;;
63693;SDS011;49839;51.798;10.954;2024-03-22T06:27:58;27.50;;;13.50;;
63693;SDS011;49839;51.798;10.954;2024-03-22T06:30:25;28.05;;;15.15;;
63693;SDS011;49839;51.798;10.954;2024-03-22T06:32:50;26.08;;;14.48;;
63693;SDS011;49839;51.798;10.954;2024-03-22T06:35:17;29.63;;;16.17;;
63693;SDS011;49839;51.798;10.954;2024-03-22T06:37:43;24.83;;;13.82;;
63693;SDS011;49839;51.798;10.954;2024-03-22T06:40:11;24.13;;;13.23;;
63693;SDS011;49839;51.798;10.954;2024-03-22T06:42:37;25.15;;;15.07;;
63693;SDS011;49839;51.798;10.954;2024-03-22T06:45:04;25.17;;;14.38;;
63693;SDS011;49839;51.798;10.954;2024-03-22T06:47:29;25.98;;;15.18;;
63693;SDS011;49839;51.798;10.954;2024-03-22T06:49:56;26.65;;;14.02;;
63693;SDS011;49839;51.798;10.954;2024-03-22T06:52:21;26.35;;;15.30;;
63693;SDS011;49839;51.798;10.954;2024-03-22T06:54:48;28.42;;;15.80;;
63693;SDS011;49839;51.798;10.954;2024-03-22T06:57:15;31.80;;;14.77;;
63693;SDS011;49839;51.798;10.954;2024-03-22T06:59:41;26.30;;;15.20;;
63693;SDS011;49839;51.798;10.954;2024-03-22T07:02:07;25.20;;;13.63;;
63693;SDS011;49839;51.798;10.954;2024-03-22T07:04:34;25.77;;;13.48;;
63693;SDS011;49839;51.798;10.954;2024-03-22T07:07:00;23.55;;;13.25;;
63693;SDS011;49839;51.798;10.954;2024-03-22T07:09:26;22.65;;;12.40;;
63693;SDS011;49839;51.798;10.954;2024-03-22T07:11:55;24.70;;;13.73;;
63693;SDS011;49839;51.798;10.954;2024-03-22T07:14:23;25.17;;;14.65;;
63693;SDS011;49839;51.798;10.954;2024-03-22T07:16:50;25.47;;;13.83;;
63693;SDS011;49839;51.798;10.954;2024-03-22T07:19:19;24.92;;;13.95;;
63693;SDS011;49839;51.798;10.954;2024-03-22T07:21:45;24.42;;;13.75;;
63693;SDS011;49839;51.798;10.954;2024-03-22T07:24:11;25.52;;;13.88;;
63693;SDS011;49839;51.798;10.954;2024-03-22T07:26:37;20.73;;;10.05;;
63693;SDS011;49839;51.798;10.954;2024-03-22T07:29:03;30.15;;;14.38;;
63693;SDS011;49839;51.798;10.954;2024-03-22T07:31:30;25.63;;;14.98;;
63693;SDS011;49839;51.798;10.954;2024-03-22T07:33:57;25.38;;;14.90;;
63693;SDS011;49839;51.798;10.954;2024-03-22T07:36:22;22.90;;;14.38;;
63693;SDS011;49839;51.798;10.954;2024-03-22T07:38:49;30.70;;;15.48;;
63693;SDS011;49839;51.798;10.954;2024-03-22T07:41:14;22.00;;;12.98;;
63693;SDS011;49839;51.798;10.954;2024-03-22T07:43:41;27.48;;;14.40;;
63693;SDS011;49839;51.798;10.954;2024-03-22T07:46:06;25.63;;;15.23;;
63693;SDS011;49839;51.798;10.954;2024-03-22T07:48:34;23.45;;;12.55;;
63693;SDS011;49839;51.798;10.954;2024-03-22T07:51:00;23.15;;;12.90;;
63693;SDS011;49839;51.798;10.954;2024-03-22T07:53:27;20.77;;;13.20;;
63693;SDS011;49839;51.798;10.954;2024-03-22T07:55:52;27.15;;;13.45;;
63693;SDS011;49839;51.798;10.954;2024-03-22T07:58:19;25.90;;;15.05;;
63693;SDS011;49839;51.798;10.954;2024-03-22T08:00:45;24.20;;;13.20;;
63693;SDS011;49839;51.798;10.954;2024-03-22T08:03:14;22.60;;;13.38;;
63693;SDS011;49839;51.798;10.954;2024-03-22T08:05:41;24.05;;;13.40;;
63693;SDS011;49839;51.798;10.954;2024-03-22T08:08:07;20.35;;;12.57;;
63693;SDS011;49839;51.798;10.954;2024-03-22T08:10:33;27.50;;;14.55;;
63693;SDS011;49839;51.798;10.954;2024-03-22T08:12:59;27.98;;;14.25;;
63693;SDS011;49839;51.798;10.954;2024-03-22T08:15:25;24.00;;;12.75;;
63693;SDS011;49839;51.798;10.954;2024-03-22T08:17:52;24.35;;;13.45;;
63693;SDS011;49839;51.798;10.954;2024-03-22T08:20:18;28.38;;;16.98;;
63693;SDS011;49839;51.798;10.954;2024-03-22T08:22:46;24.48;;;12.93;;
63693;SDS011;49839;51.798;10.954;2024-03-22T08:25:11;30.25;;;14.30;;
63693;SDS011;49839;51.798;10.954;2024-03-22T08:27:42;21.08;;;12.68;;
63693;SDS011;49839;51.798;10.954;2024-03-22T08:30:08;21.63;;;12.23;;
63693;SDS011;49839;51.798;10.954;2024-03-22T08:32:34;22.08;;;13.00;;
63693;SDS011;49839;51.798;10.954;2024-03-22T08:35:00;26.10;;;13.70;;
63693;SDS011;49839;51.798;10.954;2024-03-22T08:37:26;20.17;;;12.25;;
63693;SDS011;49839;51.798;10.954;2024-03-22T08:39:54;21.83;;;12.15;;
63693;SDS011;49839;51.798;10.954;2024-03-22T08:42:20;37.60;;;16.30;;
63693;SDS011;49839;51.798;10.954;2024-03-22T08:44:45;20.38;;;11.15;;
63693;SDS011;49839;51.798;10.954;2024-03-22T08:47:12;18.40;;;11.15;;
63693;SDS011;49839;51.798;10.954;2024-03-22T08:49:38;18.98;;;11.00;;
63693;SDS011;49839;51.798;10.954;2024-03-22T08:52:06;18.20;;;11.93;;
63693;SDS011;49839;51.798;10.954;2024-03-22T08:54:32;17.95;;;10.25;;
63693;SDS011;49839;51.798;10.954;2024-03-22T08:57:00;21.77;;;11.45;;
63693;SDS011;49839;51.798;10.954;2024-03-22T08:59:27;16.50;;;9.95;;
63693;SDS011;49839;51.798;10.954;2024-03-22T09:01:53;20.15;;;10.18;;
63693;SDS011;49839;51.798;10.954;2024-03-22T09:04:19;20.98;;;11.40;;
63693;SDS011;49839;51.798;10.954;2024-03-22T09:06:45;19.23;;;10.05;;
63693;SDS011;49839;51.798;10.954;2024-03-22T09:09:11;16.92;;;10.32;;
63693;SDS011;49839;51.798;10.954;2024-03-22T09:11:37;16.42;;;9.93;;
63693;SDS011;49839;51.798;10.954;2024-03-22T09:14:04;17.20;;;9.70;;
63693;SDS011;49839;51.798;10.954;2024-03-22T09:16:31;17.38;;;9.50;;
63693;SDS011;49839;51.798;10.954;2024-03-22T09:18:56;15.55;;;8.57;;
63693;SDS011;49839;51.798;10.954;2024-03-22T09:21:23;16.75;;;9.40;;
63693;SDS011;49839;51.798;10.954;2024-03-22T09:23:49;15.80;;;8.73;;
63693;SDS011;49839;51.798;10.954;2024-03-22T09:26:16;13.45;;;7.82;;
63693;SDS011;49839;51.798;10.954;2024-03-22T09:28:41;16.17;;;8.68;;
63693;SDS011;49839;51.798;10.954;2024-03-22T09:31:09;16.05;;;8.10;;
63693;SDS011;49839;51.798;10.954;2024-03-22T09:33:35;20.50;;;8.80;;
63693;SDS011;49839;51.798;10.954;2024-03-22T09:36:01;17.60;;;9.45;;
63693;SDS011;49839;51.798;10.954;2024-03-22T09:38:27;14.63;;;8.02;;
63693;SDS011;49839;51.798;10.954;2024-03-22T09:40:54;15.90;;;7.90;;
63693;SDS011;49839;51.798;10.954;2024-03-22T09:43:20;20.75;;;8.70;;
63693;SDS011;49839;51.798;10.954;2024-03-22T09:45:47;13.38;;;7.47;;
63693;SDS011;49839;51.798;10.954;2024-03-22T09:48:13;20.05;;;7.60;;
63693;SDS011;49839;51.798;10.954;2024-03-22T09:50:40;12.95;;;7.93;;
63693;SDS011;49839;51.798;10.954;2024-03-22T09:53:06;17.27;;;7.30;;
63693;SDS011;49839;51.798;10.954;2024-03-22T09:55:32;14.32;;;7.10;;
63693;SDS011;49839;51.798;10.954;2024-03-22T09:57:58;12.13;;;5.53;;
63693;SDS011;49839;51.798;10.954;2024-03-22T10:00:25;16.10;;;7.35;;
63693;SDS011;49839;51.798;10.954;2024-03-22T10:02:51;16.42;;;7.55;;
63693;SDS011;49839;51.798;10.954;2024-03-22T10:05:20;13.27;;;7.15;;
63693;SDS011;49839;51.798;10.954;2024-03-22T10:07:45;13.38;;;6.03;;
63693;SDS011;49839;51.798;10.954;2024-03-22T10:10:12;13.90;;;6.88;;
63693;SDS011;49839;51.798;10.954;2024-03-22T10:12:37;15.43;;;8.18;;
63693;SDS011;49839;51.798;10.954;2024-03-22T10:15:05;13.95;;;6.60;;
63693;SDS011;49839;51.798;10.954;2024-03-22T10:17:31;16.08;;;6.53;;
63693;SDS011;49839;51.798;10.954;2024-03-22T10:19:57;14.80;;;6.88;;
63693;SDS011;49839;51.798;10.954;2024-03-22T10:22:25;12.15;;;6.60;;
63693;SDS011;49839;51.798;10.954;2024-03-22T10:24:50;12.73;;;6.95;;
63693;SDS011;49839;51.798;10.954;2024-03-22T10:27:18;11.68;;;6.13;;
63693;SDS011;49839;51.798;10.954;2024-03-22T10:29:44;10.57;;;6.68;;
63693;SDS011;49839;51.798;10.954;2024-03-22T10:32:10;17.35;;;7.32;;
63693;SDS011;49839;51.798;10.954;2024-03-22T10:34:36;15.05;;;6.90;;
63693;SDS011;49839;51.798;10.954;2024-03-22T10:37:04;12.55;;;6.47;;
63693;SDS011;49839;51.798;10.954;2024-03-22T10:39:31;12.27;;;7.57;;
63693;SDS011;49839;51.798;10.954;2024-03-22T10:41:59;10.13;;;4.50;;
63693;SDS011;49839;51.798;10.954;2024-03-22T10:44:24;13.13;;;7.10;;
63693;SDS011;49839;51.798;10.954;2024-03-22T10:46:51;14.63;;;7.18;;
63693;SDS011;49839;51.798;10.954;2024-03-22T10:49:19;11.23;;;5.65;;
63693;SDS011;49839;51.798;10.954;2024-03-22T10:51:46;10.02;;;5.65;;
63693;SDS011;49839;51.798;10.954;2024-03-22T10:54:13;12.95;;;6.97;;
63693;SDS011;49839;51.798;10.954;2024-03-22T10:56:41;11.98;;;6.55;;
63693;SDS011;49839;51.798;10.954;2024-03-22T10:59:08;12.80;;;6.97;;
63693;SDS011;49839;51.798;10.954;2024-03-22T11:01:34;13.88;;;6.80;;
63693;SDS011;49839;51.798;10.954;2024-03-22T11:04:05;16.05;;;7.55;;
63693;SDS011;49839;51.798;10.954;2024-03-22T11:06:32;14.80;;;7.35;;
63693;SDS011;49839;51.798;10.954;2024-03-22T11:08:59;13.50;;;7.35;;
63693;SDS011;49839;51.798;10.954;2024-03-22T11:11:25;12.32;;;6.90;;
63693;SDS011;49839;51.798;10.954;2024-03-22T11:13:54;11.52;;;6.47;;
63693;SDS011;49839;51.798;10.954;2024-03-22T11:16:21;13.15;;;7.35;;
63693;SDS011;49839;51.798;10.954;2024-03-22T11:18:47;11.07;;;5.78;;
63693;SDS011;49839;51.798;10.954;2024-03-22T11:21:13;14.43;;;6.72;;
63693;SDS011;49839;51.798;10.954;2024-03-22T11:23:39;12.57;;;6.45;;
63693;SDS011;49839;51.798;10.954;2024-03-22T11:26:06;12.65;;;7.22;;
63693;SDS011;49839;51.798;10.954;2024-03-22T11:28:33;13.75;;;7.50;;
63693;SDS011;49839;51.798;10.954;2024-03-22T11:31:00;12.52;;;5.90;;
63693;SDS011;49839;51.798;10.954;2024-03-22T11:33:26;15.57;;;7.68;;
63693;SDS011;49839;51.798;10.954;2024-03-22T11:35:53;13.13;;;7.88;;
63693;SDS011;49839;51.798;10.954;2024-03-22T11:38:19;15.23;;;7.25;;
63693;SDS011;49839;51.798;10.954;2024-03-22T11:40:45;14.02;;;7.63;;
63693;SDS011;49839;51.798;10.954;2024-03-22T11:43:11;13.48;;;7.47;;
63693;SDS011;49839;51.798;10.954;2024-03-22T11:45:40;12.23;;;6.38;;
63693;SDS011;49839;51.798;10.954;2024-03-22T11:48:07;12.90;;;7.68;;
63693;SDS011;49839;51.798;10.954;2024-03-22T11:50:34;14.10;;;8.43;;
63693;SDS011;49839;51.798;10.954;2024-03-22T11:52:59;15.15;;;7.45;;
63693;SDS011;49839;51.798;10.954;2024-03-22T11:55:26;14.15;;;8.13;;
63693;SDS011;49839;51.798;10.954;2024-03-22T11:57:53;14.68;;;7.70;;
63693;SDS011;49839;51.798;10.954;2024-03-22T12:00:19;13.85;;;7.18;;
63693;SDS011;49839;51.798;10.954;2024-03-22T12:02:45;16.77;;;9.07;;
63693;SDS011;49839;51.798;10.954;2024-03-22T12:05:13;15.57;;;8.38;;
63693;SDS011;49839;51.798;10.954;2024-03-22T12:07:39;15.27;;;8.57;;
63693;SDS011;49839;51.798;10.954;2024-03-22T12:10:06;15.32;;;8.27;;
63693;SDS011;49839;51.798;10.954;2024-03-22T12:12:32;15.10;;;8.43;;
63693;SDS011;49839;51.798;10.954;2024-03-22T12:14:59;18.02;;;9.30;;
63693;SDS011;49839;51.798;10.954;2024-03-22T12:17:24;16.58;;;9.02;;
63693;SDS011;49839;51.798;10.954;2024-03-22T12:19:51;14.82;;;8.98;;
63693;SDS011;49839;51.798;10.954;2024-03-22T12:22:18;15.05;;;9.20;;
63693;SDS011;49839;51.798;10.954;2024-03-22T12:24:45;16.33;;;8.15;;
63693;SDS011;49839;51.798;10.954;2024-03-22T12:27:10;14.73;;;8.77;;
63693;SDS011;49839;51.798;10.954;2024-03-22T12:29:37;15.13;;;8.25;;
63693;SDS011;49839;51.798;10.954;2024-03-22T12:32:03;14.30;;;7.65;;
63693;SDS011;49839;51.798;10.954;2024-03-22T12:34:30;13.82;;;7.13;;
63693;SDS011;49839;51.798;10.954;2024-03-22T12:36:55;14.85;;;8.10;;
63693;SDS011;49839;51.798;10.954;2024-03-22T12:39:23;15.63;;;6.82;;
63693;SDS011;49839;51.798;10.954;2024-03-22T12:41:48;13.15;;;7.45;;
63693;SDS011;49839;51.798;10.954;2024-03-22T12:44:15;15.18;;;7.82;;
63693;SDS011;49839;51.798;10.954;2024-03-22T12:46:41;13.18;;;7.93;;
63693;SDS011;49839;51.798;10.954;2024-03-22T12:49:09;14.60;;;7.67;;
63693;SDS011;49839;51.798;10.954;2024-03-22T12:51:35;13.70;;;7.05;;
63693;SDS011;49839;51.798;10.954;2024-03-22T12:54:02;16.98;;;8.85;;
63693;SDS011;49839;51.798;10.954;2024-03-22T12:56:29;14.88;;;8.55;;
63693;SDS011;49839;51.798;10.954;2024-03-22T12:58:56;12.98;;;8.25;;
63693;SDS011;49839;51.798;10.954;2024-03-22T13:01:21;14.90;;;8.20;;
63693;SDS011;49839;51.798;10.954;2024-03-22T13:03:48;16.92;;;8.23;;
63693;SDS011;49839;51.798;10.954;2024-03-22T13:06:13;14.68;;;8.15;;
63693;SDS011;49839;51.798;10.954;2024-03-22T13:08:40;13.40;;;8.05;;
63693;SDS011;49839;51.798;10.954;2024-03-22T13:11:05;13.07;;;7.80;;
63693;SDS011;49839;51.798;10.954;2024-03-22T13:13:35;16.58;;;8.23;;
63693;SDS011;49839;51.798;10.954;2024-03-22T13:16:00;11.98;;;7.82;;
63693;SDS011;49839;51.798;10.954;2024-03-22T13:18:28;16.92;;;7.25;;
63693;SDS011;49839;51.798;10.954;2024-03-22T13:20:53;13.18;;;8.23;;
63693;SDS011;49839;51.798;10.954;2024-03-22T13:23:20;17.85;;;9.15;;
63693;SDS011;49839;51.798;10.954;2024-03-22T13:25:45;14.88;;;9.20;;
63693;SDS011;49839;51.798;10.954;2024-03-22T13:28:12;14.18;;;8.57;;
63693;SDS011;49839;51.798;10.954;2024-03-22T13:30:39;14.15;;;8.20;;
63693;SDS011;49839;51.798;10.954;2024-03-22T13:33:05;14.05;;;9.25;;
63693;SDS011;49839;51.798;10.954;2024-03-22T13:35:33;14.93;;;8.93;;
63693;SDS011;49839;51.798;10.954;2024-03-22T13:38:00;17.00;;;9.43;;
63693;SDS011;49839;51.798;10.954;2024-03-22T13:40:26;14.73;;;8.57;;
63693;SDS011;49839;51.798;10.954;2024-03-22T13:42:52;15.48;;;9.68;;
63693;SDS011;49839;51.798;10.954;2024-03-22T13:45:18;16.95;;;9.15;;
63693;SDS011;49839;51.798;10.954;2024-03-22T13:47:46;16.58;;;9.30;;
63693;SDS011;49839;51.798;10.954;2024-03-22T13:50:11;14.05;;;9.07;;
63693;SDS011;49839;51.798;10.954;2024-03-22T13:52:38;15.50;;;9.07;;
63693;SDS011;49839;51.798;10.954;2024-03-22T13:55:03;17.23;;;9.77;;
63693;SDS011;49839;51.798;10.954;2024-03-22T13:57:30;17.25;;;9.35;;
63693;SDS011;49839;51.798;10.954;2024-03-22T13:59:56;15.98;;;9.73;;
63693;SDS011;49839;51.798;10.954;2024-03-22T14:02:23;15.35;;;9.27;;
63693;SDS011;49839;51.798;10.954;2024-03-22T14:04:49;14.85;;;8.70;;
63693;SDS011;49839;51.798;10.954;2024-03-22T14:07:17;15.20;;;8.60;;
63693;SDS011;49839;51.798;10.954;2024-03-22T14:09:45;16.25;;;9.73;;